Time;durP1;ratioP1;P1;durP2;ratioP2;P2;SDS_P1;SDS_P2;PMS_P1;PMS_P2;Temp;Humidity;BMP_temperature;BMP_pressure;BME280_temperature;BME280_humidity;BME280_pressure;Samples;Min_cycle;Max_cycle;Signal;HPM_P1;HPM_P2
2022/11/11 00:01:36;;;;;;;;;;;9.60;95.80;;;;;;5022872;28;19933;-71
2022/11/11 00:04:02;;;;;;;;;;;9.60;95.80;;;;;;5032339;28;19951;-71
2022/11/11 00:06:30;;;;;;;;;;;9.50;95.80;;;;;;5029881;28;19929;-71
2022/11/11 00:08:57;;;;;;;;;;;9.50;95.80;;;;;;5035667;28;19929;-71
2022/11/11 00:11:23;;;;;;;;;;;9.50;95.80;;;;;;5023763;28;20590;-69
2022/11/11 00:13:50;;;;;;;;;;;9.50;95.80;;;;;;5024880;28;19929;-71
2022/11/11 00:16:18;;;;;;;;;;;9.50;95.80;;;;;;5027135;28;20372;-69
2022/11/11 00:27:05;;;;;;;;;;;9.40;95.90;;;;;;5028727;28;20024;-71
2022/11/11 00:29:32;;;;;;;;;;;9.40;95.90;;;;;;5031050;28;19964;-71
2022/11/11 00:35:51;;;;;;;;;;;9.30;95.90;;;;;;5032598;28;20083;-71
2022/11/11 00:37:30;;;;;;;;;;;9.30;95.90;;;;;;5030514;28;20617;-71
2022/11/11 00:39:57;;;;;;;;;;;9.30;95.80;;;;;;5028591;28;19929;-71
2022/11/11 00:42:23;;;;;;;;;;;9.30;95.80;;;;;;5031647;28;20503;-71
2022/11/11 00:44:50;;;;;;;;;;;9.20;95.80;;;;;;5028292;28;19929;-70
2022/11/11 00:52:47;;;;;;;;;;;9.20;95.90;;;;;;5037764;28;20407;-70
2022/11/11 00:55:13;;;;;;;;;;;9.20;95.90;;;;;;5033898;28;19948;-70
2022/11/11 00:57:40;;;;;;;;;;;9.10;95.80;;;;;;5035206;28;19939;-70
2022/11/11 01:00:07;;;;;;;;;;;9.10;95.80;;;;;;5032234;28;19933;-71
2022/11/11 01:02:33;;;;;;;;;;;9.10;95.80;;;;;;5027697;28;19975;-70
2022/11/11 01:05:00;;;;;;;;;;;9.10;96.20;;;;;;5026233;28;19953;-70
2022/11/11 01:07:26;;;;;;;;;;;9.10;95.80;;;;;;5029490;28;19929;-71
2022/11/11 01:09:54;;;;;;;;;;;9.00;95.80;;;;;;5030947;28;19928;-70
2022/11/11 01:12:21;;;;;;;;;;;9.00;95.80;;;;;;5026103;28;19933;-70
2022/11/11 01:14:47;;;;;;;;;;;9.00;95.80;;;;;;5034440;28;19936;-71
2022/11/11 01:17:14;;;;;;;;;;;9.00;96.20;;;;;;5024227;28;19929;-70
2022/11/11 01:19:40;;;;;;;;;;;9.00;95.90;;;;;;5026769;28;19928;-70
2022/11/11 01:22:07;;;;;;;;;;;8.90;95.90;;;;;;5025846;28;19933;-70
2022/11/11 01:24:34;;;;;;;;;;;8.90;95.90;;;;;;5027917;28;20301;-70
2022/11/11 01:27:01;;;;;;;;;;;8.90;95.90;;;;;;5028173;28;19933;-70
2022/11/11 01:29:28;;;;;;;;;;;8.90;95.90;;;;;;5029873;28;19936;-70
2022/11/11 01:31:55;;;;;;;;;;;8.90;95.90;;;;;;5026272;28;19941;-70
2022/11/11 01:34:21;;;;;;;;;;;8.80;95.90;;;;;;5030234;28;19943;-70
2022/11/11 01:36:48;;;;;;;;;;;8.90;96.00;;;;;;5028493;28;19929;-71
2022/11/11 01:39:14;;;;;;;;;;;8.80;95.90;;;;;;5024528;28;19933;-70
2022/11/11 01:41:41;;;;;;;;;;;8.80;95.90;;;;;;5031939;28;19928;-70
2022/11/11 01:44:18;;;;;;;;;;;8.80;96.00;;;;;;5032080;28;19936;-70
2022/11/11 01:46:47;;;;;;;;;;;8.80;96.00;;;;;;5016959;28;19952;-70
2022/11/11 01:49:20;;;;;;;;;;;8.80;96.00;;;;;;5022445;28;20771;-70
2022/11/11 01:51:49;;;;;;;;;;;8.70;95.90;;;;;;5025438;28;19931;-70
2022/11/11 01:54:17;;;;;;;;;;;8.70;96.20;;;;;;5027978;28;19930;-70
2022/11/11 01:56:46;;;;;;;;;;;8.70;95.90;;;;;;5031618;28;19929;-70
2022/11/11 01:59:15;;;;;;;;;;;8.70;95.90;;;;;;5021545;28;19948;-70
2022/11/11 02:01:44;;;;;;;;;;;8.70;95.90;;;;;;5023733;28;20028;-70
2022/11/11 02:06:55;;;;;;;;;;;8.60;95.90;;;;;;5028197;28;20043;-70
2022/11/11 02:09:22;;;;;;;;;;;8.60;95.90;;;;;;5024849;28;19940;-71
2022/11/11 02:14:41;;;;;;;;;;;8.60;95.90;;;;;;5030558;28;19932;-70
2022/11/11 02:17:12;;;;;;;;;;;8.60;95.90;;;;;;5024300;28;19925;-70
2022/11/11 02:19:43;;;;;;;;;;;8.50;96.00;;;;;;5027454;28;20620;-70
2022/11/11 02:22:12;;;;;;;;;;;8.50;96.00;;;;;;5026433;28;19929;-70
2022/11/11 02:24:41;;;;;;;;;;;8.50;95.90;;;;;;5027163;28;19932;-70
2022/11/11 02:27:10;;;;;;;;;;;8.50;96.00;;;;;;5026808;28;19933;-70
2022/11/11 02:29:37;;;;;;;;;;;8.50;96.00;;;;;;5030418;28;19936;-70
2022/11/11 02:32:03;;;;;;;;;;;8.40;95.90;;;;;;5025681;28;20309;-70
2022/11/11 02:34:30;;;;;;;;;;;8.40;96.00;;;;;;5037069;28;20300;-71
2022/11/11 02:36:57;;;;;;;;;;;8.40;95.90;;;;;;5034146;28;19969;-70
2022/11/11 02:39:24;;;;;;;;;;;8.40;96.00;;;;;;5035906;28;19936;-70
2022/11/11 02:41:58;;;;;;;;;;;8.40;96.00;;;;;;5028258;28;19935;-70
2022/11/11 02:44:25;;;;;;;;;;;8.40;96.00;;;;;;5029661;28;19929;-71
2022/11/11 02:46:52;;;;;;;;;;;8.30;96.00;;;;;;5029612;28;19944;-71
2022/11/11 02:49:18;;;;;;;;;;;8.30;96.00;;;;;;5027946;28;19944;-70
2022/11/11 02:51:46;;;;;;;;;;;8.30;96.00;;;;;;5027918;28;19929;-70
2022/11/11 02:54:13;;;;;;;;;;;8.30;96.00;;;;;;5027335;28;20467;-70
2022/11/11 02:59:24;;;;;;;;;;;8.30;96.00;;;;;;5021746;28;19994;-70
2022/11/11 03:01:51;;;;;;;;;;;8.30;96.00;;;;;;5024651;28;20339;-70
2022/11/11 03:04:18;;;;;;;;;;;8.30;96.00;;;;;;5024789;28;19929;-70
2022/11/11 03:06:44;;;;;;;;;;;8.20;96.00;;;;;;5028218;28;20668;-70
2022/11/11 03:09:11;;;;;;;;;;;8.20;96.00;;;;;;5031025;28;20403;-70
2022/11/11 03:11:37;;;;;;;;;;;8.20;96.00;;;;;;5029529;28;20292;-69
2022/11/11 03:14:04;;;;;;;;;;;8.20;96.00;;;;;;5033046;28;19928;-70
2022/11/11 03:19:24;;;;;;;;;;;8.20;96.00;;;;;;5003751;28;20427;-70
2022/11/11 03:21:50;;;;;;;;;;;8.10;96.00;;;;;;5029570;28;19929;-70
2022/11/11 03:24:16;;;;;;;;;;;8.10;96.00;;;;;;5028337;28;19929;-70
2022/11/11 03:26:42;;;;;;;;;;;8.10;96.00;;;;;;5026650;28;19959;-69
2022/11/11 03:29:08;;;;;;;;;;;8.10;96.00;;;;;;5027788;28;20012;-70
2022/11/11 03:31:37;;;;;;;;;;;8.10;96.00;;;;;;5029261;28;20726;-70
2022/11/11 03:39:56;;;;;;;;;;;8.00;96.10;;;;;;5076809;28;19936;-70
2022/11/11 03:42:22;;;;;;;;;;;8.00;96.10;;;;;;5075920;28;19935;-70
2022/11/11 03:44:49;;;;;;;;;;;8.00;96.10;;;;;;5093054;27;19927;-70
2022/11/11 03:47:15;;;;;;;;;;;8.00;96.10;;;;;;5100040;27;19934;-70
2022/11/11 03:49:44;;;;;;;;;;;8.00;96.10;;;;;;5101028;28;19928;-70
2022/11/11 03:52:13;;;;;;;;;;;7.90;96.10;;;;;;5098141;28;19981;-69
2022/11/11 03:54:39;;;;;;;;;;;7.90;96.00;;;;;;5095761;28;20332;-70
2022/11/11 03:59:50;;;;;;;;;;;7.90;96.10;;;;;;5097151;28;19992;-69
2022/11/11 04:10:31;;;;;;;;;;;7.80;96.10;;;;;;5071052;28;19935;-70
2022/11/11 04:23:52;;;;;;;;;;;7.80;96.20;;;;;;5071529;28;20658;-70
2022/11/11 04:26:18;;;;;;;;;;;7.80;96.20;;;;;;5077691;28;19928;-69
2022/11/11 04:31:29;;;;;;;;;;;7.80;96.20;;;;;;5078310;28;20442;-71
2022/11/11 04:33:54;;;;;;;;;;;7.80;96.20;;;;;;5077728;28;19942;-71
2022/11/11 04:36:21;;;;;;;;;;;7.80;96.20;;;;;;5079371;28;19932;-71
2022/11/11 04:41:29;;;;;;;;;;;7.70;96.20;;;;;;5051100;28;20415;-71
2022/11/11 04:46:41;;;;;;;;;;;7.80;96.30;;;;;;5072752;28;20429;-71
2022/11/11 04:49:07;;;;;;;;;;;7.70;96.30;;;;;;5065480;28;20419;-71
2022/11/11 04:54:14;;;;;;;;;;;7.70;96.30;;;;;;5059664;28;20184;-72
2022/11/11 04:56:48;;;;;;;;;;;7.70;96.30;;;;;;5065316;28;19932;-71
2022/11/11 04:59:19;;;;;;;;;;;7.70;96.30;;;;;;5064955;28;19986;-71
2022/11/11 05:04:29;;;;;;;;;;;7.70;96.30;;;;;;5062218;28;19939;-71
2022/11/11 05:09:40;;;;;;;;;;;7.70;96.40;;;;;;5064899;28;19956;-71
2022/11/11 05:12:08;;;;;;;;;;;7.70;96.40;;;;;;5054807;28;19974;-71
2022/11/11 05:22:55;;;;;;;;;;;7.70;96.40;;;;;;5057489;28;19931;-71
2022/11/11 05:25:29;;;;;;;;;;;7.70;96.40;;;;;;5061043;28;19952;-70
2022/11/11 05:27:57;;;;;;;;;;;7.70;96.40;;;;;;5056513;28;19925;-71
2022/11/11 05:30:24;;;;;;;;;;;7.70;96.50;;;;;;5064468;28;19929;-71
2022/11/11 05:32:51;;;;;;;;;;;7.70;96.50;;;;;;5062475;28;20289;-71
2022/11/11 05:35:18;;;;;;;;;;;7.70;96.50;;;;;;5062220;28;19955;-71
2022/11/11 05:38:18;;;;;;;;;;;7.70;96.50;;;;;;5061918;28;19940;-71
2022/11/11 05:40:33;;;;;;;;;;;7.70;96.50;;;;;;5060668;28;19925;-71
2022/11/11 05:43:01;;;;;;;;;;;7.70;96.60;;;;;;5063205;28;19932;-71
2022/11/11 05:45:27;;;;;;;;;;;7.70;96.60;;;;;;5059092;28;19936;-71
2022/11/11 05:47:54;;;;;;;;;;;7.70;96.60;;;;;;5061045;28;20023;-71
2022/11/11 05:50:20;;;;;;;;;;;7.70;96.60;;;;;;5061080;28;19928;-71
2022/11/11 05:52:47;;;;;;;;;;;7.70;96.70;;;;;;5063210;28;19932;-71
2022/11/11 05:55:14;;;;;;;;;;;7.70;96.70;;;;;;5059874;28;19929;-71
2022/11/11 05:57:40;;;;;;;;;;;7.70;96.70;;;;;;5059172;28;20428;-71
2022/11/11 06:00:10;;;;;;;;;;;7.70;96.70;;;;;;5058924;28;19929;-71
2022/11/11 06:02:36;;;;;;;;;;;7.60;96.70;;;;;;5056363;28;19929;-70
2022/11/11 06:05:03;;;;;;;;;;;7.70;96.70;;;;;;5057914;28;19950;-71
2022/11/11 06:07:30;;;;;;;;;;;7.70;96.80;;;;;;5059238;28;19928;-71
2022/11/11 06:10:29;;;;;;;;;;;7.70;96.80;;;;;;5058427;28;19994;-70
2022/11/11 06:15:25;;;;;;;;;;;7.70;97.40;;;;;;5061190;28;19935;-69
2022/11/11 06:17:52;;;;;;;;;;;7.60;97.70;;;;;;5059761;28;20412;-68
2022/11/11 06:20:18;;;;;;;;;;;7.60;97.80;;;;;;5063411;28;19929;-68
2022/11/11 06:28:14;;;;;;;;;;;7.60;97.70;;;;;;5059490;28;19977;-69
2022/11/11 06:30:42;;;;;;;;;;;7.70;97.60;;;;;;5056545;28;19936;-69
2022/11/11 06:33:09;;;;;;;;;;;7.70;97.50;;;;;;5053523;28;19935;-68
2022/11/11 06:35:35;;;;;;;;;;;7.70;97.50;;;;;;5061047;28;19935;-69
2022/11/11 06:38:02;;;;;;;;;;;7.70;97.40;;;;;;5052925;28;20384;-69
2022/11/11 06:40:29;;;;;;;;;;;7.70;97.40;;;;;;5061089;28;20376;-68
2022/11/11 06:42:56;;;;;;;;;;;7.70;97.40;;;;;;5055583;28;20354;-70
2022/11/11 06:45:23;;;;;;;;;;;7.70;97.40;;;;;;5058850;28;19929;-70
2022/11/11 06:47:50;;;;;;;;;;;7.70;97.60;;;;;;5057565;28;20018;-71
2022/11/11 06:50:17;;;;;;;;;;;7.80;97.90;;;;;;5056504;28;19928;-69
2022/11/11 06:52:44;;;;;;;;;;;7.80;98.20;;;;;;5058872;28;20774;-70
2022/11/11 06:55:10;;;;;;;;;;;7.80;98.20;;;;;;5058534;28;19940;-71
2022/11/11 06:57:37;;;;;;;;;;;7.80;98.30;;;;;;5053921;28;20015;-70
2022/11/11 07:00:04;;;;;;;;;;;7.90;98.30;;;;;;5061316;28;19955;-70
2022/11/11 07:02:30;;;;;;;;;;;7.90;98.20;;;;;;5061002;28;19928;-70
2022/11/11 07:04:58;;;;;;;;;;;8.00;98.20;;;;;;5058563;28;19932;-70
2022/11/11 07:07:25;;;;;;;;;;;8.00;98.10;;;;;;5062413;28;19981;-70
2022/11/11 07:09:54;;;;;;;;;;;8.00;98.10;;;;;;5054362;28;20411;-71
2022/11/11 07:12:21;;;;;;;;;;;8.00;98.00;;;;;;5055253;28;20385;-69
2022/11/11 07:14:48;;;;;;;;;;;8.00;97.90;;;;;;5060563;28;19997;-70
2022/11/11 07:17:14;;;;;;;;;;;8.00;97.80;;;;;;5057646;28;20203;-70
2022/11/11 07:19:41;;;;;;;;;;;8.10;97.70;;;;;;5054986;28;19932;-70
2022/11/11 07:22:09;;;;;;;;;;;8.10;97.60;;;;;;5061772;28;20403;-70
2022/11/11 07:24:35;;;;;;;;;;;8.10;97.60;;;;;;5059391;28;20308;-69
2022/11/11 07:27:02;;;;;;;;;;;8.10;97.50;;;;;;5057527;28;20223;-70
2022/11/11 07:29:29;;;;;;;;;;;8.20;97.50;;;;;;5060948;28;20499;-69
2022/11/11 07:31:55;;;;;;;;;;;8.20;97.40;;;;;;5060228;28;19968;-70
2022/11/11 07:34:22;;;;;;;;;;;8.20;97.30;;;;;;5049794;28;19935;-70
2022/11/11 07:36:48;;;;;;;;;;;8.20;97.30;;;;;;5060781;28;19935;-70
2022/11/11 07:39:16;;;;;;;;;;;8.20;97.20;;;;;;5052212;28;19929;-70
2022/11/11 07:41:43;;;;;;;;;;;8.20;97.20;;;;;;5062326;28;19936;-70
2022/11/11 07:44:09;;;;;;;;;;;8.20;97.10;;;;;;5060195;28;19936;-70
2022/11/11 07:46:36;;;;;;;;;;;8.30;97.10;;;;;;5053343;28;20218;-70
2022/11/11 07:49:02;;;;;;;;;;;8.30;97.10;;;;;;5054939;28;19940;-70
2022/11/11 07:51:29;;;;;;;;;;;8.20;97.00;;;;;;5059696;28;19933;-70
2022/11/11 07:53:55;;;;;;;;;;;8.30;97.00;;;;;;5059495;28;19928;-70
2022/11/11 07:56:23;;;;;;;;;;;8.30;97.00;;;;;;5055738;28;19994;-69
2022/11/11 07:58:50;;;;;;;;;;;8.20;96.90;;;;;;5054665;28;19936;-70
2022/11/11 08:01:16;;;;;;;;;;;8.30;96.90;;;;;;5055112;28;19935;-70
2022/11/11 08:03:49;;;;;;;;;;;8.30;96.90;;;;;;5056849;28;19936;-70
2022/11/11 08:06:16;;;;;;;;;;;8.30;96.90;;;;;;5053319;28;20015;-71
2022/11/11 08:08:42;;;;;;;;;;;8.30;96.90;;;;;;5052522;28;19928;-70
2022/11/11 08:11:09;;;;;;;;;;;8.30;96.80;;;;;;5055656;28;19948;-70
2022/11/11 08:13:39;;;;;;;;;;;8.30;96.80;;;;;;5058414;28;19955;-70
2022/11/11 08:16:06;;;;;;;;;;;8.30;96.80;;;;;;5054655;28;19928;-70
2022/11/11 08:18:32;;;;;;;;;;;8.30;96.80;;;;;;5051201;28;20662;-70
2022/11/11 08:20:59;;;;;;;;;;;8.30;96.70;;;;;;5054941;28;20030;-70
2022/11/11 08:23:31;;;;;;;;;;;8.30;96.70;;;;;;5058031;28;19928;-71
2022/11/11 08:25:58;;;;;;;;;;;8.30;96.70;;;;;;5058810;28;19935;-70
2022/11/11 08:28:25;;;;;;;;;;;8.30;96.70;;;;;;5058516;28;19971;-70
2022/11/11 08:30:53;;;;;;;;;;;8.30;96.70;;;;;;5062090;28;19929;-70
2022/11/11 08:33:19;;;;;;;;;;;8.30;96.70;;;;;;5059511;28;19935;-69
2022/11/11 08:35:46;;;;;;;;;;;8.30;96.70;;;;;;5056010;28;19951;-70
2022/11/11 08:38:13;;;;;;;;;;;8.30;96.70;;;;;;5060395;28;20023;-70
2022/11/11 08:40:39;;;;;;;;;;;8.30;96.70;;;;;;5058780;28;19940;-70
2022/11/11 08:43:06;;;;;;;;;;;8.40;96.70;;;;;;5057407;28;19930;-70
2022/11/11 08:45:33;;;;;;;;;;;8.30;96.70;;;;;;5059273;28;19929;-70
2022/11/11 08:48:01;;;;;;;;;;;8.30;96.90;;;;;;5056802;28;19924;-70
2022/11/11 08:50:27;;;;;;;;;;;8.40;96.70;;;;;;5060073;28;19932;-71
2022/11/11 08:52:54;;;;;;;;;;;8.40;96.70;;;;;;5053677;28;19928;-70
2022/11/11 08:55:20;;;;;;;;;;;8.40;96.70;;;;;;5059892;28;20067;-69
2022/11/11 08:57:47;;;;;;;;;;;8.40;96.70;;;;;;5055757;28;19928;-70
2022/11/11 09:00:14;;;;;;;;;;;8.40;96.60;;;;;;5057989;28;19933;-70
2022/11/11 09:02:40;;;;;;;;;;;8.40;96.60;;;;;;5056159;28;20470;-71
2022/11/11 09:05:09;;;;;;;;;;;8.40;96.60;;;;;;5061855;28;20285;-70
2022/11/11 09:07:35;;;;;;;;;;;8.40;96.60;;;;;;5058177;28;19925;-71
2022/11/11 09:10:02;;;;;;;;;;;8.40;96.60;;;;;;5050817;28;20276;-70
2022/11/11 09:12:28;;;;;;;;;;;8.40;96.60;;;;;;5060747;28;19932;-71
2022/11/11 09:14:55;;;;;;;;;;;8.40;96.60;;;;;;5056391;28;20302;-71
2022/11/11 09:17:21;;;;;;;;;;;8.40;96.60;;;;;;5055992;28;20292;-70
2022/11/11 09:19:48;;;;;;;;;;;8.50;96.60;;;;;;5060219;28;20536;-70
2022/11/11 09:22:16;;;;;;;;;;;8.50;96.60;;;;;;5060604;28;20769;-71
2022/11/11 09:24:42;;;;;;;;;;;8.50;96.60;;;;;;5064211;28;20382;-71
2022/11/11 09:27:09;;;;;;;;;;;8.50;96.60;;;;;;5061750;28;19929;-71
2022/11/11 09:29:35;;;;;;;;;;;8.50;96.60;;;;;;5062645;28;19947;-70
2022/11/11 09:32:02;;;;;;;;;;;8.50;96.60;;;;;;5058049;28;19932;-71
2022/11/11 09:34:29;;;;;;;;;;;8.50;96.60;;;;;;5058454;28;20432;-71
2022/11/11 09:36:55;;;;;;;;;;;8.50;96.60;;;;;;5063892;28;19932;-71
2022/11/11 09:39:23;;;;;;;;;;;8.60;96.60;;;;;;5053665;28;20313;-70
2022/11/11 09:41:54;;;;;;;;;;;8.50;96.50;;;;;;5057604;28;20308;-71
2022/11/11 09:44:34;;;;;;;;;;;8.60;96.60;;;;;;5060392;28;19932;-71
2022/11/11 09:47:04;;;;;;;;;;;8.60;96.60;;;;;;5062704;28;20399;-70
2022/11/11 09:49:45;;;;;;;;;;;8.60;96.60;;;;;;5055799;28;19936;-71
2022/11/11 09:52:14;;;;;;;;;;;8.60;96.50;;;;;;5054575;28;19940;-71
2022/11/11 09:54:44;;;;;;;;;;;8.70;96.50;;;;;;5057410;28;19928;-71
2022/11/11 09:57:14;;;;;;;;;;;8.80;96.50;;;;;;5061805;28;19929;-71
2022/11/11 09:59:44;;;;;;;;;;;8.80;96.30;;;;;;5058866;28;19935;-71
2022/11/11 10:02:15;;;;;;;;;;;8.80;96.30;;;;;;5063112;28;19976;-72
2022/11/11 10:04:45;;;;;;;;;;;8.90;96.20;;;;;;5054823;28;20245;-71
2022/11/11 10:07:13;;;;;;;;;;;8.90;96.10;;;;;;5059720;28;20404;-70
2022/11/11 10:09:44;;;;;;;;;;;8.90;96.00;;;;;;5064285;28;19932;-72
2022/11/11 10:12:12;;;;;;;;;;;9.00;96.10;;;;;;5061064;28;19925;-71
2022/11/11 10:14:40;;;;;;;;;;;9.00;96.00;;;;;;5060470;28;20384;-71
2022/11/11 10:17:11;;;;;;;;;;;9.10;96.10;;;;;;5056398;28;20391;-71
2022/11/11 10:19:42;;;;;;;;;;;9.10;96.10;;;;;;5062879;28;19925;-72
2022/11/11 10:22:14;;;;;;;;;;;9.20;96.10;;;;;;5057755;28;19946;-72
2022/11/11 10:24:45;;;;;;;;;;;9.10;96.00;;;;;;5062648;28;19929;-71
2022/11/11 10:27:15;;;;;;;;;;;9.20;95.90;;;;;;5060370;28;20586;-72
2022/11/11 10:29:43;;;;;;;;;;;9.30;95.90;;;;;;5060020;28;19928;-72
2022/11/11 10:32:12;;;;;;;;;;;9.30;95.80;;;;;;5054150;28;20545;-71
2022/11/11 10:34:38;;;;;;;;;;;9.30;95.70;;;;;;5060677;28;19935;-71
2022/11/11 10:37:14;;;;;;;;;;;9.30;95.70;;;;;;5060071;28;19935;-71
2022/11/11 10:39:48;;;;;;;;;;;9.40;95.60;;;;;;5060316;28;19928;-71
2022/11/11 10:42:16;;;;;;;;;;;9.40;95.60;;;;;;5058981;28;19933;-71
2022/11/11 10:44:43;;;;;;;;;;;9.50;95.60;;;;;;5060591;28;20035;-71
2022/11/11 10:47:12;;;;;;;;;;;9.50;95.60;;;;;;5057260;28;19968;-71
2022/11/11 10:49:42;;;;;;;;;;;9.50;95.60;;;;;;5060553;28;19928;-72
2022/11/11 10:52:10;;;;;;;;;;;9.50;95.60;;;;;;5060086;28;19928;-71
2022/11/11 10:54:39;;;;;;;;;;;9.50;95.60;;;;;;5063505;28;19929;-71
2022/11/11 10:57:11;;;;;;;;;;;9.50;95.70;;;;;;5061299;28;19928;-71
2022/11/11 10:59:42;;;;;;;;;;;9.50;95.70;;;;;;5057438;28;19929;-71
2022/11/11 11:02:13;;;;;;;;;;;9.60;95.70;;;;;;5055360;28;19958;-72
2022/11/11 11:04:41;;;;;;;;;;;9.60;95.70;;;;;;5058016;28;20035;-72
2022/11/11 11:07:09;;;;;;;;;;;9.60;95.80;;;;;;5062990;28;19928;-72
2022/11/11 11:09:40;;;;;;;;;;;9.50;95.80;;;;;;5058866;28;19944;-71
2022/11/11 11:12:10;;;;;;;;;;;9.50;95.80;;;;;;5053906;28;20478;-72
2022/11/11 11:14:39;;;;;;;;;;;9.60;95.90;;;;;;5056494;28;19928;-71
2022/11/11 11:17:08;;;;;;;;;;;9.50;95.90;;;;;;5060452;28;19925;-71
2022/11/11 11:19:34;;;;;;;;;;;9.60;96.00;;;;;;5056006;28;19937;-71
2022/11/11 11:22:02;;;;;;;;;;;9.60;95.90;;;;;;5062000;28;19928;-71
2022/11/11 11:24:30;;;;;;;;;;;9.60;95.90;;;;;;5056767;28;19972;-72
2022/11/11 11:26:57;;;;;;;;;;;9.60;95.80;;;;;;5055184;28;19936;-71
2022/11/11 11:29:26;;;;;;;;;;;9.70;95.80;;;;;;5054485;28;19967;-71
2022/11/11 11:31:53;;;;;;;;;;;9.70;95.70;;;;;;5052844;28;20892;-72
2022/11/11 11:34:20;;;;;;;;;;;9.80;95.60;;;;;;5059031;28;20266;-70
2022/11/11 11:36:58;;;;;;;;;;;9.80;95.50;;;;;;5054544;28;20721;-71
2022/11/11 11:39:31;;;;;;;;;;;9.90;95.40;;;;;;5057654;28;20517;-72
2022/11/11 11:41:58;;;;;;;;;;;10.00;95.40;;;;;;5051187;28;19936;-71
2022/11/11 11:44:26;;;;;;;;;;;10.10;95.40;;;;;;5049635;28;19944;-72
2022/11/11 11:46:54;;;;;;;;;;;10.10;95.30;;;;;;5050005;28;19940;-73
2022/11/11 11:49:26;;;;;;;;;;;10.20;95.30;;;;;;5054367;28;19936;-70
2022/11/11 11:51:57;;;;;;;;;;;10.20;95.30;;;;;;5056273;28;19943;-72
2022/11/11 11:54:39;;;;;;;;;;;10.30;95.20;;;;;;5057115;28;19925;-72
2022/11/11 11:57:12;;;;;;;;;;;10.30;95.10;;;;;;5054813;28;20618;-71
2022/11/11 11:59:43;;;;;;;;;;;10.40;94.90;;;;;;5058322;28;19928;-71
2022/11/11 12:02:21;;;;;;;;;;;10.40;94.70;;;;;;5060375;28;19936;-71
2022/11/11 12:05:05;;;;;;;;;;;10.50;94.70;;;;;;5055683;28;20646;-71
2022/11/11 12:07:38;;;;;;;;;;;10.50;94.60;;;;;;5067135;28;19963;-72
2022/11/11 12:10:11;;;;;;;;;;;10.60;94.60;;;;;;5067980;28;20447;-71
2022/11/11 12:12:41;;;;;;;;;;;10.70;94.60;;;;;;5062273;28;19924;-72
2022/11/11 12:15:16;;;;;;;;;;;10.70;94.50;;;;;;5063046;28;19929;-71
2022/11/11 12:17:48;;;;;;;;;;;10.80;94.50;;;;;;5064882;28;20019;-71
2022/11/11 12:20:17;;;;;;;;;;;10.90;94.40;;;;;;5057781;28;20487;-71
2022/11/11 12:23:00;;;;;;;;;;;10.90;94.20;;;;;;5059651;28;20018;-71
2022/11/11 12:25:33;;;;;;;;;;;10.90;94.20;;;;;;5063765;28;19936;-72
2022/11/11 12:28:02;;;;;;;;;;;11.00;94.00;;;;;;5065473;28;19940;-72
2022/11/11 12:30:33;;;;;;;;;;;11.10;94.00;;;;;;5056120;28;20417;-71
2022/11/11 12:33:08;;;;;;;;;;;11.10;93.80;;;;;;5057773;28;19936;-72
2022/11/11 12:35:44;;;;;;;;;;;11.10;93.70;;;;;;5061875;28;19928;-72
2022/11/11 12:38:20;;;;;;;;;;;11.20;93.60;;;;;;5063102;28;19929;-71
2022/11/11 12:40:52;;;;;;;;;;;11.30;93.40;;;;;;5061709;28;19929;-72
2022/11/11 12:43:21;;;;;;;;;;;11.40;93.50;;;;;;5061529;28;19929;-71
2022/11/11 12:45:51;;;;;;;;;;;11.40;93.50;;;;;;5051260;28;19924;-72
2022/11/11 12:48:28;;;;;;;;;;;11.40;93.50;;;;;;5052616;28;19932;-73
2022/11/11 12:51:00;;;;;;;;;;;11.50;93.40;;;;;;5058433;28;19928;-73
2022/11/11 12:53:31;;;;;;;;;;;11.50;93.40;;;;;;5066201;28;19932;-72
2022/11/11 12:56:01;;;;;;;;;;;11.50;93.30;;;;;;5064750;28;19936;-72
2022/11/11 12:58:32;;;;;;;;;;;11.60;93.20;;;;;;5066082;28;19932;-72
2022/11/11 13:01:08;;;;;;;;;;;11.60;93.00;;;;;;5060508;28;19925;-71
2022/11/11 13:03:47;;;;;;;;;;;11.70;93.00;;;;;;5063556;28;19936;-72
2022/11/11 13:06:21;;;;;;;;;;;11.70;93.00;;;;;;5062156;28;20295;-71
2022/11/11 13:08:57;;;;;;;;;;;11.70;93.00;;;;;;5064976;28;19924;-71
2022/11/11 13:11:30;;;;;;;;;;;11.70;93.10;;;;;;5062814;28;19925;-71
2022/11/11 13:14:04;;;;;;;;;;;11.70;93.20;;;;;;5061452;28;19928;-71
2022/11/11 13:16:32;;;;;;;;;;;11.70;93.20;;;;;;5060753;28;19932;-72
2022/11/11 13:19:00;;;;;;;;;;;11.70;93.00;;;;;;5055362;28;19929;-72
2022/11/11 13:21:31;;;;;;;;;;;11.70;93.10;;;;;;5057824;28;19935;-72
2022/11/11 13:23:58;;;;;;;;;;;11.70;93.10;;;;;;5062649;28;19935;-72
2022/11/11 13:26:27;;;;;;;;;;;11.70;93.20;;;;;;5059118;28;19932;-73
2022/11/11 13:29:00;;;;;;;;;;;11.70;93.30;;;;;;5057825;28;19928;-72
2022/11/11 13:31:31;;;;;;;;;;;11.70;93.30;;;;;;5061358;28;19928;-72
2022/11/11 13:34:03;;;;;;;;;;;11.70;93.30;;;;;;5059050;28;19928;-72
2022/11/11 13:36:32;;;;;;;;;;;11.70;93.40;;;;;;5063128;28;19937;-73
2022/11/11 13:39:01;;;;;;;;;;;11.70;93.40;;;;;;5061078;28;20528;-72
2022/11/11 13:41:29;;;;;;;;;;;11.70;93.50;;;;;;5060396;28;19928;-72
2022/11/11 13:43:57;;;;;;;;;;;11.70;93.50;;;;;;5056341;28;20379;-72
2022/11/11 13:46:33;;;;;;;;;;;11.70;93.50;;;;;;5056074;28;20517;-72
2022/11/11 13:49:02;;;;;;;;;;;11.70;93.50;;;;;;5056673;28;19928;-71
2022/11/11 13:51:31;;;;;;;;;;;11.70;93.70;;;;;;5056097;28;20495;-71
2022/11/11 13:53:59;;;;;;;;;;;11.70;93.70;;;;;;5063462;28;19928;-72
2022/11/11 13:56:28;;;;;;;;;;;11.70;93.80;;;;;;5059943;28;19929;-72
2022/11/11 13:58:55;;;;;;;;;;;11.70;93.80;;;;;;5059285;28;20007;-72
2022/11/11 14:01:22;;;;;;;;;;;11.70;93.90;;;;;;5060398;28;19936;-71
2022/11/11 14:03:59;;;;;;;;;;;11.70;94.00;;;;;;5056002;28;19928;-72
2022/11/11 14:06:35;;;;;;;;;;;11.60;94.00;;;;;;5054389;28;19928;-71
2022/11/11 14:09:01;;;;;;;;;;;11.60;94.10;;;;;;5054005;28;19931;-71
2022/11/11 14:11:30;;;;;;;;;;;11.60;94.10;;;;;;5058585;28;19929;-72
2022/11/11 14:13:57;;;;;;;;;;;11.60;94.20;;;;;;5057879;28;19939;-71
2022/11/11 14:16:43;;;;;;;;;;;11.60;94.20;;;;;;5058954;28;19936;-72
2022/11/11 14:19:27;;;;;;;;;;;11.50;94.30;;;;;;5057603;28;20029;-71
2022/11/11 14:21:55;;;;;;;;;;;11.50;94.40;;;;;;5054908;28;19928;-72
2022/11/11 14:24:23;;;;;;;;;;;11.50;94.50;;;;;;5059228;28;19928;-72
2022/11/11 14:26:56;;;;;;;;;;;11.50;94.50;;;;;;5061905;28;19928;-71
2022/11/11 14:29:25;;;;;;;;;;;11.40;94.50;;;;;;5062359;28;20416;-72
2022/11/11 14:31:56;;;;;;;;;;;11.40;94.60;;;;;;5058562;28;20376;-72
2022/11/11 14:34:26;;;;;;;;;;;11.40;94.70;;;;;;5060359;28;19928;-72
2022/11/11 14:36:57;;;;;;;;;;;11.30;94.90;;;;;;5061857;28;19928;-71
2022/11/11 14:39:35;;;;;;;;;;;11.30;94.90;;;;;;5053446;28;19956;-71
2022/11/11 14:42:02;;;;;;;;;;;11.30;95.00;;;;;;5060878;28;19932;-72
2022/11/11 14:44:39;;;;;;;;;;;11.30;95.00;;;;;;5058877;28;19939;-72
2022/11/11 14:47:23;;;;;;;;;;;11.30;95.10;;;;;;5055010;28;19929;-72
2022/11/11 14:49:51;;;;;;;;;;;11.20;95.20;;;;;;5056220;28;19935;-72
2022/11/11 14:52:22;;;;;;;;;;;11.20;95.20;;;;;;5059765;28;19991;-71
2022/11/11 14:55:16;;;;;;;;;;;11.10;95.20;;;;;;5058892;28;19932;-72
2022/11/11 14:57:46;;;;;;;;;;;11.20;95.30;;;;;;5036512;28;19954;-71
2022/11/11 15:00:14;;;;;;;;;;;11.10;95.20;;;;;;5056719;28;19939;-71
2022/11/11 15:02:46;;;;;;;;;;;11.10;95.30;;;;;;5059548;28;19928;-71
2022/11/11 15:05:15;;;;;;;;;;;11.10;95.30;;;;;;5060311;28;19924;-71
2022/11/11 15:08:12;;;;;;;;;;;11.10;95.30;;;;;;5061133;28;20304;-71
2022/11/11 15:10:56;;;;;;;;;;;11.10;95.60;;;;;;5004043;28;19925;-71
2022/11/11 15:13:42;;;;;;;;;;;11.10;95.40;;;;;;5050548;28;19924;-71
2022/11/11 15:16:15;;;;;;;;;;;11.10;95.40;;;;;;5060756;28;20679;-71
2022/11/11 15:18:48;;;;;;;;;;;11.10;95.30;;;;;;5061407;28;19932;-71
2022/11/11 15:21:18;;;;;;;;;;;11.00;95.30;;;;;;5058296;28;19929;-72
2022/11/11 15:23:49;;;;;;;;;;;11.10;95.50;;;;;;5060272;28;19936;-71
2022/11/11 15:26:20;;;;;;;;;;;11.00;95.40;;;;;;5052538;28;19944;-71
2022/11/11 15:29:08;;;;;;;;;;;11.00;95.30;;;;;;5058352;28;19940;-71
2022/11/11 15:31:40;;;;;;;;;;;11.00;95.30;;;;;;5051771;28;19955;-71
2022/11/11 15:34:11;;;;;;;;;;;11.00;95.40;;;;;;5057329;28;19929;-71
2022/11/11 15:36:45;;;;;;;;;;;11.00;95.50;;;;;;5053729;28;19936;-70
2022/11/11 15:39:13;;;;;;;;;;;11.00;95.60;;;;;;5060199;28;19932;-73
2022/11/11 15:41:42;;;;;;;;;;;11.00;95.40;;;;;;5061903;28;19939;-70
2022/11/11 15:44:13;;;;;;;;;;;11.00;95.40;;;;;;5058539;28;19979;-71
2022/11/11 15:46:41;;;;;;;;;;;11.00;95.40;;;;;;5057604;28;20522;-71
2022/11/11 15:49:11;;;;;;;;;;;11.00;95.60;;;;;;5058478;28;19929;-72
2022/11/11 15:51:38;;;;;;;;;;;11.00;95.70;;;;;;5059320;28;19932;-71
2022/11/11 15:54:18;;;;;;;;;;;10.90;95.70;;;;;;5051226;28;19932;-71
2022/11/11 15:56:46;;;;;;;;;;;10.90;95.80;;;;;;5057516;28;19990;-71
2022/11/11 15:59:16;;;;;;;;;;;10.90;95.80;;;;;;5060421;28;19928;-71
2022/11/11 16:01:43;;;;;;;;;;;10.90;95.80;;;;;;5061005;28;19955;-71
2022/11/11 16:04:10;;;;;;;;;;;10.90;95.80;;;;;;5058893;28;19959;-71
2022/11/11 16:06:38;;;;;;;;;;;10.90;95.80;;;;;;5061813;28;19928;-71